Time;durP1;ratioP1;P1;durP2;ratioP2;P2;SDS_P1;SDS_P2;PMS_P1;PMS_P2;Temp;Humidity;BMP_temperature;BMP_pressure;BME280_temperature;BME280_humidity;BME280_pressure;Samples;Min_cycle;Max_cycle;Signal;HPM_P1;HPM_P2
2022/05/11 00:01:26;;;;;;;10.02;5.90;;;;;;;;;;5051573;28;20440;-26
2022/05/11 00:03:52;;;;;;;6.60;4.70;;;;;;;;;;5051836;28;20045;-25
2022/05/11 00:06:18;;;;;;;6.45;5.28;;;;;;;;;;5051332;28;20294;-26
2022/05/11 00:08:44;;;;;;;5.97;5.10;;;;;;;;;;5051281;28;20123;-26
2022/05/11 00:11:11;;;;;;;7.13;5.68;;;;;;;;;;5051307;28;20049;-26
2022/05/11 00:13:37;;;;;;;8.40;5.25;;;;;;;;;;5051146;28;20071;-28
2022/05/11 00:16:03;;;;;;;6.40;4.97;;;;;;;;;;5051189;28;20044;-26
2022/05/11 00:18:29;;;;;;;8.88;6.00;;;;;;;;;;5050964;28;20040;-28
2022/05/11 00:20:56;;;;;;;7.32;5.80;;;;;;;;;;5042204;28;20041;-26
2022/05/11 00:23:22;;;;;;;5.75;5.15;;;;;;;;;;5033328;28;20120;-26
2022/05/11 00:25:48;;;;;;;5.97;5.40;;;;;;;;;;5051229;28;20043;-26
2022/05/11 00:28:14;;;;;;;8.85;5.15;;;;;;;;;;5051520;28;20045;-26
2022/05/11 00:30:41;;;;;;;6.40;4.85;;;;;;;;;;5034173;28;20087;-27
2022/05/11 00:33:07;;;;;;;7.75;4.70;;;;;;;;;;5052354;28;20527;-26
2022/05/11 00:35:34;;;;;;;7.63;4.63;;;;;;;;;;5053442;28;20390;-26
2022/05/11 00:38:01;;;;;;;6.95;4.95;;;;;;;;;;5055372;28;20141;-27
2022/05/11 00:40:27;;;;;;;5.47;4.70;;;;;;;;;;5054913;28;20048;-28
2022/05/11 00:42:53;;;;;;;7.50;4.40;;;;;;;;;;5055243;28;20371;-26
2022/05/11 00:45:20;;;;;;;8.05;5.00;;;;;;;;;;5055091;28;20505;-26
2022/05/11 00:47:49;;;;;;;7.90;4.82;;;;;;;;;;5054819;28;20044;-27
2022/05/11 00:50:19;;;;;;;8.15;4.57;;;;;;;;;;5054708;28;20068;-26
2022/05/11 00:52:52;;;;;;;7.55;4.97;;;;;;;;;;5054681;28;20036;-26
2022/05/11 00:55:24;;;;;;;5.30;4.53;;;;;;;;;;5054484;28;20041;-27
2022/05/11 00:58:02;;;;;;;8.70;5.20;;;;;;;;;;5054804;28;20506;-26
2022/05/11 01:00:29;;;;;;;7.90;4.68;;;;;;;;;;5054786;28;20116;-26
2022/05/11 01:03:00;;;;;;;6.53;4.40;;;;;;;;;;5054809;28;20033;-26
2022/05/11 01:05:26;;;;;;;6.05;4.15;;;;;;;;;;5054258;28;20047;-27
2022/05/11 01:07:53;;;;;;;5.72;4.72;;;;;;;;;;5054565;28;20391;-27
2022/05/11 01:10:19;;;;;;;6.75;4.15;;;;;;;;;;5054810;28;20505;-26
2022/05/11 01:12:47;;;;;;;6.00;4.07;;;;;;;;;;5054872;28;20106;-27
2022/05/11 01:15:15;;;;;;;6.93;4.63;;;;;;;;;;5054530;28;20044;-26
2022/05/11 01:17:41;;;;;;;5.97;4.07;;;;;;;;;;5054914;28;20511;-26
2022/05/11 01:20:08;;;;;;;4.22;3.83;;;;;;;;;;5054747;28;20040;-26
2022/05/11 01:22:39;;;;;;;6.00;4.40;;;;;;;;;;5054548;28;20034;-26
2022/05/11 01:25:06;;;;;;;6.95;4.63;;;;;;;;;;5054090;28;20316;-28
2022/05/11 01:27:42;;;;;;;5.35;4.30;;;;;;;;;;5054272;28;20037;-26
2022/05/11 01:30:13;;;;;;;6.20;4.38;;;;;;;;;;5054233;28;20051;-26
2022/05/11 01:32:41;;;;;;;9.05;4.43;;;;;;;;;;5053869;28;20049;-26
2022/05/11 01:35:22;;;;;;;7.82;4.72;;;;;;;;;;5019746;28;20041;-26
2022/05/11 01:38:07;;;;;;;5.70;4.40;;;;;;;;;;5034748;28;20045;-33
2022/05/11 01:40:34;;;;;;;6.97;4.05;;;;;;;;;;5050325;28;20470;-26
2022/05/11 01:43:00;;;;;;;7.22;4.53;;;;;;;;;;5036009;28;20041;-26
2022/05/11 01:45:26;;;;;;;6.85;3.90;;;;;;;;;;5053504;28;20409;-26
2022/05/11 01:47:56;;;;;;;6.53;4.60;;;;;;;;;;5053251;28;20502;-26
2022/05/11 01:50:22;;;;;;;4.55;4.15;;;;;;;;;;5053627;28;20083;-25
2022/05/11 01:52:48;;;;;;;5.05;4.13;;;;;;;;;;5053757;28;20128;-30
2022/05/11 01:55:14;;;;;;;5.70;4.55;;;;;;;;;;5053203;28;20044;-25
2022/05/11 01:57:40;;;;;;;6.18;4.70;;;;;;;;;;5053447;28;20075;-26
2022/05/11 02:00:07;;;;;;;8.10;4.82;;;;;;;;;;5053502;28;20037;-27
2022/05/11 02:02:33;;;;;;;5.43;4.38;;;;;;;;;;5053976;28;20041;-27
2022/05/11 02:07:50;;;;;;;8.10;4.13;;;;;;;;;;5053519;28;20037;-27
2022/05/11 02:10:20;;;;;;;5.75;4.20;;;;;;;;;;5053368;28;20037;-26
2022/05/11 02:12:46;;;;;;;5.25;4.25;;;;;;;;;;5053332;28;20052;-26
2022/05/11 02:15:14;;;;;;;5.22;4.38;;;;;;;;;;5053418;28;20045;-28
2022/05/11 02:17:41;;;;;;;7.57;4.00;;;;;;;;;;5053094;28;20120;-26
2022/05/11 02:20:07;;;;;;;4.90;4.18;;;;;;;;;;5053003;28;20048;-26
2022/05/11 02:22:33;;;;;;;5.93;4.20;;;;;;;;;;5053055;28;20041;-26
2022/05/11 02:25:00;;;;;;;6.95;4.20;;;;;;;;;;5053542;28;20364;-26
2022/05/11 02:27:26;;;;;;;5.10;3.80;;;;;;;;;;5053000;28;20090;-27
2022/05/11 02:29:52;;;;;;;4.95;4.28;;;;;;;;;;5053117;28;20025;-26
2022/05/11 02:32:18;;;;;;;4.38;3.97;;;;;;;;;;5053310;28;20084;-26
2022/05/11 02:37:29;;;;;;;4.85;3.72;;;;;;;;;;5053194;28;20124;-26
2022/05/11 02:39:55;;;;;;;5.10;4.13;;;;;;;;;;5018173;28;20065;-26
2022/05/11 02:42:22;;;;;;;5.72;3.90;;;;;;;;;;5052824;28;20091;-26
2022/05/11 02:44:48;;;;;;;5.95;4.40;;;;;;;;;;5053008;28;20073;-28
2022/05/11 02:47:15;;;;;;;6.55;4.15;;;;;;;;;;5052405;28;20083;-27
2022/05/11 02:49:41;;;;;;;6.15;4.30;;;;;;;;;;5052979;28;20029;-26
2022/05/11 02:52:07;;;;;;;5.95;4.53;;;;;;;;;;5035160;28;20460;-28
2022/05/11 02:54:33;;;;;;;6.47;4.70;;;;;;;;;;5052566;28;20119;-26
2022/05/11 02:56:59;;;;;;;5.30;4.25;;;;;;;;;;5052979;28;20041;-27
2022/05/11 02:59:26;;;;;;;5.05;4.20;;;;;;;;;;5051557;28;20094;-26
2022/05/11 03:01:52;;;;;;;7.10;4.63;;;;;;;;;;5052640;28;20080;-26
2022/05/11 03:04:19;;;;;;;6.07;4.85;;;;;;;;;;5052800;28;20041;-26
2022/05/11 03:06:47;;;;;;;5.32;4.07;;;;;;;;;;5034432;28;20045;-26
2022/05/11 03:09:15;;;;;;;5.68;4.03;;;;;;;;;;5052739;28;20075;-26
2022/05/11 03:11:42;;;;;;;6.43;4.20;;;;;;;;;;5052083;28;20055;-28
2022/05/11 03:14:09;;;;;;;6.20;4.70;;;;;;;;;;5052166;28;20051;-26
2022/05/11 03:16:35;;;;;;;6.90;4.63;;;;;;;;;;5052241;28;20115;-25
2022/05/11 03:19:02;;;;;;;6.50;4.50;;;;;;;;;;5052444;28;20390;-25
2022/05/11 03:21:29;;;;;;;6.50;4.43;;;;;;;;;;5052200;28;20174;-26
2022/05/11 03:23:55;;;;;;;5.78;4.05;;;;;;;;;;5052561;28;20483;-28
2022/05/11 03:26:22;;;;;;;6.07;4.18;;;;;;;;;;5052467;28;20037;-27
2022/05/11 03:28:48;;;;;;;8.25;4.80;;;;;;;;;;5017917;28;20076;-27
2022/05/11 03:31:15;;;;;;;6.32;4.63;;;;;;;;;;5052547;28;20048;-27
2022/05/11 03:36:26;;;;;;;6.47;4.05;;;;;;;;;;5032580;28;20041;-27
2022/05/11 03:38:52;;;;;;;6.43;4.53;;;;;;;;;;5032326;28;20033;-27
2022/05/11 03:41:18;;;;;;;6.47;3.92;;;;;;;;;;5014382;28;20120;-26
2022/05/11 03:43:45;;;;;;;6.55;4.32;;;;;;;;;;5014264;28;20049;-26
2022/05/11 03:46:11;;;;;;;7.10;4.18;;;;;;;;;;5032485;28;20045;-28
2022/05/11 03:48:37;;;;;;;5.97;4.13;;;;;;;;;;5027614;28;20106;-27
2022/05/11 03:51:07;;;;;;;5.70;4.40;;;;;;;;;;5033990;28;20104;-26
2022/05/11 03:53:34;;;;;;;4.95;3.92;;;;;;;;;;5052244;28;20041;-27
2022/05/11 03:56:02;;;;;;;5.55;4.20;;;;;;;;;;5033864;28;20099;-28
2022/05/11 03:58:28;;;;;;;6.30;4.65;;;;;;;;;;5052076;28;20065;-26
2022/05/11 04:00:54;;;;;;;6.00;4.20;;;;;;;;;;5052167;28;20522;-27
2022/05/11 04:03:21;;;;;;;6.85;4.30;;;;;;;;;;5051807;28;20037;-29
2022/05/11 04:05:47;;;;;;;9.13;4.30;;;;;;;;;;5051961;28;20045;-26
2022/05/11 04:08:13;;;;;;;7.00;4.88;;;;;;;;;;5051915;28;20394;-28
2022/05/11 04:10:39;;;;;;;6.93;4.35;;;;;;;;;;5053992;28;20044;-28
2022/05/11 04:13:05;;;;;;;6.13;4.28;;;;;;;;;;5055424;28;20037;-26
2022/05/11 04:15:31;;;;;;;8.30;4.55;;;;;;;;;;5055440;28;20423;-25
2022/05/11 04:17:58;;;;;;;7.78;4.45;;;;;;;;;;5055251;28;20141;-27
2022/05/11 04:20:24;;;;;;;9.60;5.07;;;;;;;;;;5055341;28;20521;-27
2022/05/11 04:22:50;;;;;;;5.38;4.43;;;;;;;;;;5055481;28;20032;-26
2022/05/11 04:25:17;;;;;;;6.38;5.03;;;;;;;;;;5046767;28;20046;-27
2022/05/11 04:27:47;;;;;;;8.65;5.35;;;;;;;;;;5055752;28;20166;-26
2022/05/11 04:30:14;;;;;;;8.05;5.10;;;;;;;;;;5055340;28;20127;-26
2022/05/11 04:32:42;;;;;;;10.18;4.90;;;;;;;;;;5033137;28;20052;-28
2022/05/11 04:35:10;;;;;;;7.82;5.18;;;;;;;;;;5034316;28;20077;-26
2022/05/11 04:37:36;;;;;;;7.20;4.68;;;;;;;;;;5034135;28;20060;-26
2022/05/11 04:40:02;;;;;;;8.80;4.60;;;;;;;;;;5033651;28;20395;-26
2022/05/11 04:42:30;;;;;;;7.53;4.95;;;;;;;;;;5034429;28;20076;-28
2022/05/11 04:44:56;;;;;;;7.85;4.95;;;;;;;;;;5035019;28;20071;-27
2022/05/11 04:47:22;;;;;;;7.55;5.05;;;;;;;;;;5040085;28;20040;-27
2022/05/11 04:49:52;;;;;;;7.07;4.75;;;;;;;;;;5035048;28;20558;-26
2022/05/11 04:52:18;;;;;;;8.27;5.45;;;;;;;;;;5045607;28;20037;-26
2022/05/11 04:54:46;;;;;;;8.20;5.35;;;;;;;;;;5035059;28;20459;-26
2022/05/11 04:57:13;;;;;;;7.32;5.35;;;;;;;;;;5054498;28;20086;-26
2022/05/11 04:59:40;;;;;;;8.60;5.80;;;;;;;;;;5054273;28;20041;-27
2022/05/11 05:02:07;;;;;;;7.03;5.07;;;;;;;;;;5036653;28;20055;-27
2022/05/11 05:04:33;;;;;;;9.52;6.03;;;;;;;;;;5054563;28;20433;-28
2022/05/11 05:07:00;;;;;;;8.23;5.93;;;;;;;;;;5035963;28;20091;-26
2022/05/11 05:09:26;;;;;;;10.15;6.55;;;;;;;;;;5054116;28;20132;-27
2022/05/11 05:11:53;;;;;;;13.73;7.43;;;;;;;;;;5036466;28;20084;-26
2022/05/11 05:14:19;;;;;;;10.60;7.93;;;;;;;;;;5054314;28;20094;-26
2022/05/11 05:16:46;;;;;;;12.95;9.07;;;;;;;;;;5054356;28;20053;-26
2022/05/11 05:19:12;;;;;;;11.55;9.32;;;;;;;;;;5054097;28;20037;-27
2022/05/11 05:21:38;;;;;;;12.18;9.63;;;;;;;;;;5052119;28;20068;-30
2022/05/11 05:24:04;;;;;;;12.10;10.18;;;;;;;;;;5052604;28;20414;-29
2022/05/11 05:26:30;;;;;;;11.65;10.15;;;;;;;;;;5051953;28;20474;-30
2022/05/11 05:31:41;;;;;;;11.35;10.15;;;;;;;;;;5041417;28;20052;-32
2022/05/11 05:34:08;;;;;;;13.90;10.50;;;;;;;;;;5046728;28;20449;-30
2022/05/11 05:36:38;;;;;;;12.90;10.43;;;;;;;;;;5051580;28;20124;-31
2022/05/11 05:39:05;;;;;;;15.95;10.60;;;;;;;;;;5051585;28;20033;-31
2022/05/11 05:41:31;;;;;;;11.63;9.75;;;;;;;;;;5052791;28;20087;-32
2022/05/11 05:43:57;;;;;;;11.30;9.00;;;;;;;;;;5050860;28;20041;-31
2022/05/11 05:46:24;;;;;;;10.18;9.00;;;;;;;;;;5047722;28;20041;-31
2022/05/11 05:48:50;;;;;;;10.43;8.52;;;;;;;;;;5045835;28;20048;-33
2022/05/11 05:51:17;;;;;;;10.27;7.50;;;;;;;;;;5050459;28;20079;-31
2022/05/11 05:53:44;;;;;;;11.52;7.55;;;;;;;;;;5031562;28;20033;-30
2022/05/11 05:56:12;;;;;;;11.70;7.18;;;;;;;;;;5049451;28;20547;-29
2022/05/11 05:58:38;;;;;;;11.48;6.88;;;;;;;;;;5049694;28;20041;-30
2022/05/11 06:01:05;;;;;;;8.98;6.57;;;;;;;;;;5050857;28;20037;-29
2022/05/11 06:03:32;;;;;;;10.90;7.90;;;;;;;;;;5052979;28;20483;-31
2022/05/11 06:05:58;;;;;;;11.93;8.13;;;;;;;;;;5036345;28;20506;-27
2022/05/11 06:08:24;;;;;;;10.43;8.00;;;;;;;;;;5054060;28;20124;-28
2022/05/11 06:10:53;;;;;;;13.18;9.38;;;;;;;;;;5053403;28;20041;-27
2022/05/11 06:13:22;;;;;;;12.50;9.18;;;;;;;;;;5053735;28;20048;-25
2022/05/11 06:15:49;;;;;;;11.05;9.20;;;;;;;;;;5051711;28;20529;-30
2022/05/11 06:18:15;;;;;;;11.90;9.90;;;;;;;;;;5051643;28;20033;-30
2022/05/11 06:20:41;;;;;;;15.35;9.43;;;;;;;;;;5052534;28;20047;-30
2022/05/11 06:23:07;;;;;;;10.20;7.57;;;;;;;;;;5052815;28;20566;-32
2022/05/11 06:25:34;;;;;;;10.65;7.20;;;;;;;;;;5033124;28;20044;-31
2022/05/11 06:28:00;;;;;;;13.15;7.32;;;;;;;;;;5044289;28;20044;-31
2022/05/11 06:30:27;;;;;;;9.18;6.30;;;;;;;;;;5045478;28;20080;-30
2022/05/11 06:32:54;;;;;;;11.40;6.00;;;;;;;;;;5051370;28;20479;-32
2022/05/11 06:35:20;;;;;;;9.77;5.55;;;;;;;;;;5051355;28;20077;-31
2022/05/11 06:37:48;;;;;;;10.32;6.70;;;;;;;;;;5050806;28;20045;-31
2022/05/11 06:40:15;;;;;;;11.00;5.18;;;;;;;;;;5051414;28;20067;-32
2022/05/11 06:42:42;;;;;;;6.50;5.20;;;;;;;;;;5043990;28;20498;-32
2022/05/11 06:45:09;;;;;;;9.27;4.90;;;;;;;;;;5051546;28;20040;-31
2022/05/11 06:47:36;;;;;;;7.60;4.82;;;;;;;;;;5050952;28;20073;-33
2022/05/11 06:50:02;;;;;;;4.93;4.43;;;;;;;;;;5050522;28;20032;-31
2022/05/11 06:52:28;;;;;;;7.57;4.18;;;;;;;;;;5051248;28;20095;-31
2022/05/11 07:00:32;;;;;;;7.07;3.42;;;;;;;;;;5051132;28;20076;-32
2022/05/11 07:02:58;;;;;;;8.98;4.03;;;;;;;;;;5051626;28;20043;-31
2022/05/11 07:05:24;;;;;;;4.32;3.13;;;;;;;;;;5050995;28;20033;-31
2022/05/11 07:07:54;;;;;;;5.30;3.50;;;;;;;;;;5050454;28;20037;-31
2022/05/11 07:10:20;;;;;;;7.68;3.00;;;;;;;;;;5050738;28;20098;-32
2022/05/11 07:12:47;;;;;;;6.65;2.47;;;;;;;;;;5051178;28;20041;-30
2022/05/11 07:15:14;;;;;;;7.70;2.90;;;;;;;;;;5029116;28;20039;-33
2022/05/11 07:17:47;;;;;;;5.63;2.70;;;;;;;;;;5035432;28;20037;-31
2022/05/11 07:20:21;;;;;;;7.75;2.90;;;;;;;;;;5047908;28;20072;-30
2022/05/11 07:22:47;;;;;;;6.30;2.60;;;;;;;;;;5050406;28;20036;-35
2022/05/11 07:25:18;;;;;;;4.45;2.35;;;;;;;;;;5050525;28;20082;-30
2022/05/11 07:27:44;;;;;;;6.03;2.40;;;;;;;;;;5051218;28;20106;-30
2022/05/11 07:30:13;;;;;;;5.65;2.20;;;;;;;;;;5050651;28;20429;-30
2022/05/11 07:32:39;;;;;;;7.93;2.20;;;;;;;;;;5050873;28;20036;-31
2022/05/11 07:35:06;;;;;;;8.65;2.83;;;;;;;;;;5033262;28;20494;-30
2022/05/11 07:37:32;;;;;;;4.82;2.22;;;;;;;;;;5050054;28;20041;-32
2022/05/11 07:39:59;;;;;;;5.13;1.85;;;;;;;;;;5048783;28;20116;-31
2022/05/11 07:42:26;;;;;;;6.15;2.17;;;;;;;;;;5050583;28;20045;-32
2022/05/11 07:44:52;;;;;;;5.85;2.05;;;;;;;;;;5041800;28;20037;-31
2022/05/11 07:47:20;;;;;;;4.88;1.85;;;;;;;;;;5050236;28;20036;-30
2022/05/11 07:49:46;;;;;;;4.82;1.77;;;;;;;;;;5047394;28;20045;-30
2022/05/11 07:52:12;;;;;;;6.75;1.70;;;;;;;;;;5039378;28;20056;-32
2022/05/11 07:54:40;;;;;;;3.58;1.50;;;;;;;;;;5040792;28;20551;-32
2022/05/11 07:59:52;;;;;;;4.47;1.77;;;;;;;;;;5040692;28;20502;-31
2022/05/11 08:02:18;;;;;;;8.98;1.70;;;;;;;;;;5045488;28;20382;-33
2022/05/11 08:04:44;;;;;;;4.18;1.83;;;;;;;;;;5026300;28;20569;-31
2022/05/11 08:07:13;;;;;;;3.30;1.80;;;;;;;;;;5037317;28;20502;-31
2022/05/11 08:09:39;;;;;;;5.43;1.70;;;;;;;;;;5045811;28;20048;-30
2022/05/11 08:12:05;;;;;;;6.25;1.70;;;;;;;;;;5049897;28;20503;-30
2022/05/11 08:14:31;;;;;;;6.38;1.90;;;;;;;;;;5050126;28;20052;-31
2022/05/11 08:16:57;;;;;;;5.47;1.67;;;;;;;;;;5050022;28;20081;-32
2022/05/11 08:19:24;;;;;;;4.32;1.73;;;;;;;;;;5049857;28;20051;-30
2022/05/11 08:21:51;;;;;;;7.22;1.92;;;;;;;;;;5050052;28;20041;-30
2022/05/11 08:24:18;;;;;;;6.35;1.77;;;;;;;;;;5049753;28;20075;-34
2022/05/11 08:26:46;;;;;;;5.93;1.63;;;;;;;;;;5043782;28;20120;-32
2022/05/11 08:33:18;;;;;;;4.05;1.67;;;;;;;;;;5048531;28;20044;-32
2022/05/11 08:34:43;;;;;;;4.57;1.77;;;;;;;;;;5050210;28;20045;-32
2022/05/11 08:37:09;;;;;;;3.63;1.40;;;;;;;;;;5049155;28;20091;-31
2022/05/11 08:39:35;;;;;;;5.75;1.50;;;;;;;;;;5025787;28;20550;-30
2022/05/11 08:42:02;;;;;;;5.68;1.48;;;;;;;;;;5034315;28;20120;-30
2022/05/11 08:44:32;;;;;;;4.00;1.80;;;;;;;;;;5041276;28;20037;-31
2022/05/11 08:47:02;;;;;;;6.35;2.33;;;;;;;;;;5042842;28;20049;-31
2022/05/11 08:49:46;;;;;;;5.47;2.20;;;;;;;;;;5033644;28;20051;-31
2022/05/11 08:52:25;;;;;;;4.97;1.70;;;;;;;;;;5046546;28;20037;-31
2022/05/11 08:54:56;;;;;;;3.25;1.30;;;;;;;;;;5039866;28;20090;-31
2022/05/11 08:57:25;;;;;;;5.28;1.35;;;;;;;;;;5027021;28;20128;-34
2022/05/11 08:59:57;;;;;;;5.93;1.40;;;;;;;;;;5041236;28;20039;-30
2022/05/11 09:02:29;;;;;;;4.80;1.30;;;;;;;;;;5041311;28;20037;-30
2022/05/11 09:04:58;;;;;;;4.45;1.70;;;;;;;;;;5026158;28;20037;-31
2022/05/11 09:07:24;;;;;;;6.45;1.70;;;;;;;;;;5044081;28;20544;-31
2022/05/11 09:09:53;;;;;;;3.65;1.60;;;;;;;;;;5039348;28;20037;-31
2022/05/11 09:12:20;;;;;;;6.45;1.73;;;;;;;;;;5049727;28;20059;-30
2022/05/11 09:14:49;;;;;;;5.50;1.70;;;;;;;;;;5045295;28;20044;-31
2022/05/11 09:17:26;;;;;;;5.68;2.20;;;;;;;;;;5045123;28;20052;-31
2022/05/11 09:20:00;;;;;;;3.70;1.48;;;;;;;;;;5045370;28;20044;-32
2022/05/11 09:22:27;;;;;;;6.82;1.98;;;;;;;;;;5052407;28;20465;-30
2022/05/11 09:25:00;;;;;;;6.47;1.80;;;;;;;;;;5045102;28;20478;-31
2022/05/11 09:27:26;;;;;;;;;;;;;;;;;;5028105;28;20041;-33
2022/05/11 09:29:58;;;;;;;4.28;1.50;;;;;;;;;;5044714;28;20445;-31
2022/05/11 09:32:29;;;;;;;4.82;1.50;;;;;;;;;;5053589;28;20037;-32
2022/05/11 09:34:55;;;;;;;7.93;1.77;;;;;;;;;;5035013;28;20041;-32
2022/05/11 09:37:24;;;;;;;5.40;1.40;;;;;;;;;;5053355;28;20309;-31
2022/05/11 09:39:52;;;;;;;3.40;1.30;;;;;;;;;;5052840;28;20033;-32
2022/05/11 09:42:21;;;;;;;7.13;1.95;;;;;;;;;;5053475;28;20072;-31
2022/05/11 09:44:49;;;;;;;6.68;1.50;;;;;;;;;;5052911;28;20037;-31
2022/05/11 09:47:24;;;;;;;4.20;1.35;;;;;;;;;;5053499;28;20056;-33
2022/05/11 09:49:51;;;;;;;3.88;1.15;;;;;;;;;;5052760;28;20048;-34
2022/05/11 09:52:28;;;;;;;7.10;1.50;;;;;;;;;;5053444;28;20041;-32
2022/05/11 09:54:54;;;;;;;7.57;1.30;;;;;;;;;;5053301;28;20398;-32
2022/05/11 09:57:23;;;;;;;6.28;1.10;;;;;;;;;;5053719;28;20107;-32
2022/05/11 09:59:51;;;;;;;4.93;1.60;;;;;;;;;;5053927;28;20036;-33
2022/05/11 10:02:31;;;;;;;3.05;1.40;;;;;;;;;;5044241;28;20041;-27
2022/05/11 10:05:14;;;;;;;4.90;1.73;;;;;;;;;;5053806;28;20044;-27
2022/05/11 10:07:46;;;;;;;4.93;1.42;;;;;;;;;;5053233;28;20537;-27
2022/05/11 10:10:28;;;;;;;3.90;1.35;;;;;;;;;;5053642;28;20390;-27
2022/05/11 10:12:57;;;;;;;4.18;1.17;;;;;;;;;;5053448;28;20041;-27
2022/05/11 10:23:49;;;;;;;4.82;1.30;;;;;;;;;;5053228;28;20052;-27
2022/05/11 10:26:19;;;;;;;4.18;1.10;;;;;;;;;;5053253;28;20487;-28
2022/05/11 10:28:55;;;;;;;3.60;1.15;;;;;;;;;;5053083;28;20045;-30
2022/05/11 10:31:30;;;;;;;4.65;1.30;;;;;;;;;;5052804;28;20410;-28
2022/05/11 10:33:57;;;;;;;4.47;1.10;;;;;;;;;;5018383;28;20073;-29
2022/05/11 10:36:42;;;;;;;5.80;1.70;;;;;;;;;;5050031;28;20060;-27
2022/05/11 10:39:27;;;;;;;6.53;1.55;;;;;;;;;;5049697;28;20103;-29
2022/05/11 10:41:55;;;;;;;4.13;1.50;;;;;;;;;;5044322;28;20116;-29
2022/05/11 10:44:33;;;;;;;4.05;1.15;;;;;;;;;;5052792;28;20033;-28
2022/05/11 10:47:05;;;;;;;4.88;1.23;;;;;;;;;;5052536;28;20045;-28
2022/05/11 10:49:38;;;;;;;5.75;1.40;;;;;;;;;;5052837;28;20040;-28
2022/05/11 10:52:04;;;;;;;;;;;;;;;;;;5053115;28;20081;-29
2022/05/11 10:54:39;;;;;;;4.35;1.20;;;;;;;;;;5052607;28;19923;-31
2022/05/11 10:57:24;;;;;;;6.95;1.75;;;;;;;;;;5043991;28;20036;-28
2022/05/11 10:59:50;;;;;;;3.30;1.15;;;;;;;;;;5052322;28;20440;-29
2022/05/11 11:02:34;;;;;;;6.00;1.60;;;;;;;;;;5051808;28;20398;-28
2022/05/11 11:05:08;;;;;;;5.47;1.40;;;;;;;;;;5039181;28;20056;-28
2022/05/11 11:07:40;;;;;;;6.65;1.13;;;;;;;;;;5052213;28;20099;-28
2022/05/11 11:10:13;;;;;;;4.73;1.37;;;;;;;;;;5051754;28;20091;-29
2022/05/11 11:12:39;;;;;;;2.50;1.20;;;;;;;;;;5034745;28;20041;-29
2022/05/11 11:15:13;;;;;;;3.15;0.95;;;;;;;;;;5034387;28;20283;-31
2022/05/11 11:17:40;;;;;;;5.82;1.20;;;;;;;;;;5052462;28;20486;-29
2022/05/11 11:20:07;;;;;;;5.85;1.10;;;;;;;;;;5050617;28;20090;-28
2022/05/11 11:22:52;;;;;;;3.13;1.10;;;;;;;;;;5039217;28;20048;-28
2022/05/11 11:25:22;;;;;;;3.42;1.10;;;;;;;;;;5049695;28;20094;-30
2022/05/11 11:28:12;;;;;;;4.70;1.20;;;;;;;;;;5051824;28;20116;-29
2022/05/11 11:30:42;;;;;;;11.38;1.65;;;;;;;;;;5051425;28;20044;-28
2022/05/11 11:33:12;;;;;;;3.45;1.33;;;;;;;;;;5051940;28;20040;-28
2022/05/11 11:36:10;;;;;;;3.90;1.33;;;;;;;;;;5052095;28;20128;-31
2022/05/11 11:38:39;;;;;;;5.15;1.33;;;;;;;;;;5005445;28;20107;-28
2022/05/11 11:41:22;;;;;;;3.35;1.20;;;;;;;;;;5027922;28;20040;-28
2022/05/11 11:43:58;;;;;;;4.35;1.77;;;;;;;;;;5034146;28;20045;-29
2022/05/11 11:46:32;;;;;;;5.97;1.38;;;;;;;;;;5052328;28;20048;-30
2022/05/11 11:49:10;;;;;;;4.38;1.30;;;;;;;;;;5053471;28;20051;-30
2022/05/11 11:51:52;;;;;;;3.33;1.30;;;;;;;;;;5036935;28;20064;-32
2022/05/11 11:54:34;;;;;;;3.13;1.13;;;;;;;;;;5037513;28;20381;-30
2022/05/11 11:57:02;;;;;;;4.10;1.37;;;;;;;;;;5039084;28;20092;-31
2022/05/11 11:59:28;;;;;;;4.30;1.23;;;;;;;;;;5044415;28;20044;-31
2022/05/11 12:01:58;;;;;;;3.30;1.40;;;;;;;;;;5041210;28;20533;-32
2022/05/11 12:04:27;;;;;;;4.60;1.23;;;;;;;;;;5041400;28;20040;-32
2022/05/11 12:15:16;;;;;;;2.30;1.17;;;;;;;;;;5051752;28;20053;-31
2022/05/11 12:17:42;;;;;;;7.22;1.85;;;;;;;;;;5051399;28;20557;-31
2022/05/11 12:20:12;;;;;;;5.50;1.75;;;;;;;;;;5051974;28;20048;-31
2022/05/11 12:22:42;;;;;;;4.13;1.23;;;;;;;;;;5051167;28;20430;-32
2022/05/11 12:25:11;;;;;;;2.70;1.00;;;;;;;;;;5051246;28;20051;-30
2022/05/11 12:27:38;;;;;;;6.90;1.50;;;;;;;;;;5051625;28;20037;-31
2022/05/11 12:30:07;;;;;;;4.95;1.33;;;;;;;;;;5051669;28;20045;-31
2022/05/11 12:32:37;;;;;;;2.60;1.08;;;;;;;;;;5054838;28;20128;-31
2022/05/11 12:35:27;;;;;;;4.75;1.30;;;;;;;;;;5055044;28;20141;-30
2022/05/11 12:37:58;;;;;;;4.20;1.30;;;;;;;;;;5045928;28;20418;-30
2022/05/11 12:40:24;;;;;;;4.18;1.25;;;;;;;;;;5055700;28;20048;-29
2022/05/11 12:42:55;;;;;;;1.77;1.00;;;;;;;;;;5055630;28;20124;-32
2022/05/11 12:45:25;;;;;;;5.30;1.30;;;;;;;;;;5052598;28;20041;-31
2022/05/11 12:47:56;;;;;;;2.90;1.58;;;;;;;;;;5046078;28;20049;-32
2022/05/11 12:50:24;;;;;;;3.67;1.67;;;;;;;;;;5054959;28;20106;-31
2022/05/11 12:53:05;;;;;;;13.80;2.03;;;;;;;;;;5054829;28;20051;-32
2022/05/11 12:55:34;;;;;;;5.75;1.65;;;;;;;;;;5054544;28;20407;-36
2022/05/11 12:58:00;;;;;;;9.10;1.63;;;;;;;;;;5054040;28;20112;-31
2022/05/11 13:00:29;;;;;;;7.72;1.45;;;;;;;;;;5054061;28;20109;-31
2022/05/11 13:02:56;;;;;;;5.57;1.50;;;;;;;;;;5054444;28;20045;-32
2022/05/11 13:05:23;;;;;;;7.57;1.58;;;;;;;;;;5054634;28;20098;-31
2022/05/11 13:07:51;;;;;;;5.68;1.52;;;;;;;;;;5033949;28;20051;-34
2022/05/11 13:10:21;;;;;;;6.45;1.88;;;;;;;;;;5034069;28;20037;-31
2022/05/11 13:12:50;;;;;;;5.00;1.33;;;;;;;;;;5037736;28;20098;-34
2022/05/11 13:15:30;;;;;;;4.55;1.42;;;;;;;;;;5053381;28;20074;-31
2022/05/11 13:17:56;;;;;;;4.10;1.50;;;;;;;;;;5035353;28;20041;-34
2022/05/11 13:20:25;;;;;;;5.72;1.30;;;;;;;;;;5053600;28;20037;-33
2022/05/11 13:22:52;;;;;;;4.85;1.80;;;;;;;;;;5053664;28;20037;-32
2022/05/11 13:25:37;;;;;;;7.38;1.50;;;;;;;;;;5053844;28;20068;-31
2022/05/11 13:28:22;;;;;;;7.55;2.10;;;;;;;;;;5054020;28;20060;-31
2022/05/11 13:30:49;;;;;;;4.93;1.67;;;;;;;;;;5036869;28;20041;-31
2022/05/11 13:33:33;;;;;;;4.38;1.20;;;;;;;;;;5053238;28;20453;-34
2022/05/11 13:36:10;;;;;;;7.88;1.85;;;;;;;;;;5053039;28;20460;-32
2022/05/11 13:38:36;;;;;;;5.10;1.80;;;;;;;;;;5053166;28;20044;-32
2022/05/11 13:41:04;;;;;;;4.57;2.05;;;;;;;;;;5053320;28;20557;-33
2022/05/11 13:43:32;;;;;;;4.68;1.90;;;;;;;;;;5051364;28;20044;-34
2022/05/11 13:46:08;;;;;;;6.60;1.80;;;;;;;;;;5051269;28;20033;-32
2022/05/11 13:48:43;;;;;;;5.97;1.95;;;;;;;;;;5052329;28;20128;-31
2022/05/11 13:51:18;;;;;;;5.07;1.98;;;;;;;;;;5052999;28;20119;-32
2022/05/11 13:53:45;;;;;;;7.43;2.38;;;;;;;;;;5052803;28;20073;-32
2022/05/11 13:56:17;;;;;;;6.60;1.80;;;;;;;;;;5052154;28;20036;-31
2022/05/11 13:58:47;;;;;;;7.85;2.38;;;;;;;;;;5051746;28;20033;-32
2022/05/11 14:01:19;;;;;;;6.90;2.03;;;;;;;;;;5034642;28;20095;-31
2022/05/11 14:03:49;;;;;;;9.30;2.30;;;;;;;;;;5052379;28;20079;-32
2022/05/11 14:06:19;;;;;;;8.77;1.77;;;;;;;;;;5034556;28;20045;-31
2022/05/11 14:08:45;;;;;;;5.93;2.17;;;;;;;;;;5051384;28;20036;-32
2022/05/11 14:11:12;;;;;;;4.90;1.70;;;;;;;;;;5052362;28;20045;-31
2022/05/11 14:13:38;;;;;;;4.47;1.63;;;;;;;;;;5052171;28;20052;-31
2022/05/11 14:16:05;;;;;;;5.35;1.83;;;;;;;;;;5052357;28;20037;-32
2022/05/11 14:18:31;;;;;;;5.15;1.98;;;;;;;;;;5052336;28;20494;-32
2022/05/11 14:20:58;;;;;;;6.32;2.25;;;;;;;;;;5052065;28;20044;-34
2022/05/11 14:23:24;;;;;;;7.80;2.17;;;;;;;;;;5051845;28;20086;-32
2022/05/11 14:25:50;;;;;;;8.55;2.83;;;;;;;;;;5052060;28;20098;-33
2022/05/11 14:28:16;;;;;;;6.10;1.90;;;;;;;;;;5033766;28;20506;-31
2022/05/11 14:30:42;;;;;;;5.60;1.90;;;;;;;;;;5050653;28;20126;-33
2022/05/11 14:33:11;;;;;;;8.77;2.22;;;;;;;;;;5051941;28;20094;-33
2022/05/11 14:35:37;;;;;;;7.80;2.33;;;;;;;;;;5051495;28;20041;-31
2022/05/11 14:38:04;;;;;;;6.95;2.08;;;;;;;;;;5052470;28;20091;-32
2022/05/11 14:40:30;;;;;;;6.10;2.38;;;;;;;;;;5048444;28;20386;-36
2022/05/11 14:42:57;;;;;;;5.88;2.05;;;;;;;;;;5034841;28;20037;-33
2022/05/11 14:45:23;;;;;;;5.97;1.88;;;;;;;;;;5049031;28;20124;-31
2022/05/11 14:47:51;;;;;;;7.20;2.05;;;;;;;;;;5041238;28;20087;-31
2022/05/11 14:50:20;;;;;;;7.55;1.90;;;;;;;;;;5052351;28;20037;-31
2022/05/11 14:52:47;;;;;;;9.95;2.10;;;;;;;;;;5047797;28;20091;-31
2022/05/11 14:55:14;;;;;;;8.85;2.55;;;;;;;;;;5036560;28;20029;-32
2022/05/11 15:03:10;;;;;;;9.95;4.15;;;;;;;;;;5033881;28;20261;-32
2022/05/11 15:05:38;;;;;;;7.85;3.85;;;;;;;;;;5037434;28;20072;-31
2022/05/11 15:08:04;;;;;;;7.00;2.40;;;;;;;;;;5039371;28;20049;-32
2022/05/11 15:10:30;;;;;;;5.70;2.00;;;;;;;;;;5038327;28;20404;-31
2022/05/11 15:15:41;;;;;;;8.27;2.10;;;;;;;;;;5045620;28;20411;-31
2022/05/11 15:18:11;;;;;;;5.03;1.98;;;;;;;;;;5034067;28;20048;-30
2022/05/11 15:20:38;;;;;;;9.30;2.58;;;;;;;;;;5019543;28;20142;-30
2022/05/11 15:23:05;;;;;;;6.65;2.03;;;;;;;;;;5036818;28;20109;-33
2022/05/11 15:25:31;;;;;;;8.30;2.30;;;;;;;;;;5013791;28;20120;-31
2022/05/11 15:27:57;;;;;;;7.68;2.03;;;;;;;;;;5034823;28;20060;-31
2022/05/11 15:30:25;;;;;;;5.82;1.90;;;;;;;;;;5040074;28;20044;-30
2022/05/11 15:32:52;;;;;;;6.85;2.08;;;;;;;;;;5037183;28;20380;-31
2022/05/11 15:35:20;;;;;;;7.10;1.90;;;;;;;;;;5043723;28;20064;-32
2022/05/11 15:37:46;;;;;;;6.00;2.15;;;;;;;;;;5029796;28;20044;-31
2022/05/11 15:40:13;;;;;;;8.48;2.40;;;;;;;;;;5041045;28;20112;-32